createdAt,value
2023-02-27T00:00:53.669Z,0.90
2023-02-27T00:03:40.751Z,0.80
2023-02-27T00:06:27.888Z,0.90
2023-02-27T00:09:13.778Z,0.80
2023-02-27T00:12:04.018Z,0.85
2023-02-27T00:14:51.498Z,0.80
2023-02-27T00:17:38.775Z,0.90
2023-02-27T00:20:24.847Z,1.10
2023-02-27T00:23:10.972Z,0.80
2023-02-27T00:25:57.602Z,0.90
2023-02-27T00:28:43.232Z,0.80
2023-02-27T00:31:29.471Z,0.93
2023-02-27T00:34:15.800Z,0.80
2023-02-27T00:37:04.689Z,0.52
2023-02-27T00:39:51.150Z,0.60
2023-02-27T00:42:38.081Z,0.60
2023-02-27T00:45:23.841Z,0.52
2023-02-27T00:48:10.974Z,0.50
2023-02-27T00:50:56.732Z,0.60
2023-02-27T00:53:42.803Z,0.60
2023-02-27T00:56:29.789Z,0.60
2023-02-27T00:59:20.040Z,0.70
2023-02-27T01:02:08.576Z,0.60
2023-02-27T01:04:58.919Z,0.63
2023-02-27T01:07:45.859Z,0.50
2023-02-27T01:10:33.200Z,0.50
2023-02-27T01:13:19.239Z,0.52
2023-02-27T01:16:15.896Z,0.55
2023-02-27T01:19:02.866Z,0.60
2023-02-27T01:21:50.857Z,0.65
2023-02-27T01:24:49.789Z,0.50
2023-02-27T01:27:36.879Z,0.60
2023-02-27T01:30:24.050Z,0.70
2023-02-27T01:33:10.165Z,0.70
2023-02-27T01:36:01.167Z,0.60
2023-02-27T01:38:47.599Z,0.80
2023-02-27T01:41:45.382Z,0.90
2023-02-27T01:44:32.015Z,0.80
2023-02-27T01:47:18.276Z,0.68
2023-02-27T01:50:04.952Z,1.08
2023-02-27T01:52:57.539Z,0.75
2023-02-27T01:55:46.834Z,0.82
2023-02-27T01:58:34.447Z,0.80
2023-02-27T02:01:22.537Z,0.90
2023-02-27T02:04:30.553Z,1.00
2023-02-27T02:07:19.564Z,0.90
2023-02-27T02:10:06.470Z,1.17
2023-02-27T02:13:23.961Z,1.02
2023-02-27T02:16:41.137Z,0.80
2023-02-27T02:19:49.969Z,0.90
2023-02-27T02:23:01.801Z,0.80
2023-02-27T02:25:58.728Z,0.80
2023-02-27T02:29:07.437Z,0.98
2023-02-27T02:31:59.171Z,1.20
2023-02-27T02:35:23.251Z,0.80
2023-02-27T02:38:18.327Z,0.90
2023-02-27T02:41:18.348Z,0.90
2023-02-27T02:44:27.584Z,0.90
2023-02-27T02:47:57.191Z,1.23
2023-02-27T02:51:07.763Z,0.98
2023-02-27T02:54:04.539Z,1.40
2023-02-27T02:56:54.731Z,0.90
2023-02-27T03:00:03.610Z,1.20
2023-02-27T03:02:53.805Z,1.00
2023-02-27T03:05:45.040Z,0.80
2023-02-27T03:08:34.574Z,1.05
2023-02-27T03:11:23.429Z,1.10
2023-02-27T03:14:19.093Z,1.35
2023-02-27T03:17:09.313Z,1.08
2023-02-27T03:20:00.006Z,1.20
2023-02-27T03:22:47.999Z,1.30
2023-02-27T03:25:36.195Z,1.08
2023-02-27T03:28:27.090Z,0.88
2023-02-27T03:31:26.058Z,1.10
2023-02-27T03:34:28.026Z,1.13
2023-02-27T03:37:27.789Z,1.35
2023-02-27T03:40:16.623Z,1.27
2023-02-27T03:43:16.891Z,1.15
2023-02-27T03:46:31.091Z,1.15
2023-02-27T03:49:18.293Z,1.35
2023-02-27T03:52:04.063Z,1.50
2023-02-27T03:55:08.290Z,1.25
2023-02-27T04:00:40.926Z,1.60
2023-02-27T04:03:27.141Z,2.08
2023-02-27T04:06:31.386Z,2.28
2023-02-27T04:12:31.634Z,1.70
2023-02-27T04:15:50.019Z,1.83
2023-02-27T04:19:04.985Z,1.80
2023-02-27T04:22:29.262Z,1.70
2023-02-27T04:25:27.868Z,1.35
2023-02-27T04:28:34.316Z,1.50
2023-02-27T04:31:51.834Z,1.58
2023-02-27T04:34:42.567Z,1.50
2023-02-27T04:37:46.630Z,1.40
2023-02-27T04:41:04.416Z,1.63
2023-02-27T04:43:50.563Z,1.63
2023-02-27T04:46:39.642Z,1.42
2023-02-27T04:49:44.444Z,1.60
2023-02-27T04:52:34.607Z,1.67
2023-02-27T04:55:25.226Z,1.35
2023-02-27T04:58:42.033Z,1.20
2023-02-27T05:01:37.405Z,1.38
2023-02-27T05:04:26.304Z,1.60
2023-02-27T05:07:17.800Z,1.65
2023-02-27T05:10:06.956Z,1.80
2023-02-27T05:13:03.837Z,1.88
2023-02-27T05:15:54.721Z,1.90
2023-02-27T05:18:41.570Z,2.03
2023-02-27T05:21:36.342Z,2.08
2023-02-27T05:24:50.302Z,3.15
2023-02-27T05:27:42.192Z,2.25
2023-02-27T05:30:42.850Z,2.45
2023-02-27T05:33:56.220Z,2.03
2023-02-27T05:36:54.551Z,1.80
2023-02-27T05:39:41.121Z,1.98
2023-02-27T05:42:29.862Z,2.25
2023-02-27T05:45:21.083Z,1.70
2023-02-27T05:48:17.830Z,1.80
2023-02-27T05:51:07.218Z,2.15
2023-02-27T05:54:01.876Z,1.88
2023-02-27T05:56:49.622Z,2.00
2023-02-27T05:59:43.503Z,5.00
2023-02-27T06:02:29.314Z,4.63
2023-02-27T06:05:16.958Z,2.78
2023-02-27T06:08:02.845Z,3.03
2023-02-27T06:10:50.035Z,2.80
2023-02-27T06:13:35.969Z,2.85
2023-02-27T06:16:21.881Z,3.05
2023-02-27T06:19:07.732Z,2.60
2023-02-27T06:21:53.820Z,2.80
2023-02-27T06:24:39.419Z,2.80
2023-02-27T06:27:26.971Z,3.03
2023-02-27T06:30:13.278Z,3.28
2023-02-27T06:33:01.076Z,2.88
2023-02-27T06:35:50.435Z,3.03
2023-02-27T06:38:37.261Z,2.75
2023-02-27T06:41:23.122Z,3.83
2023-02-27T06:44:08.745Z,3.00
2023-02-27T06:47:01.331Z,2.53
2023-02-27T06:49:57.539Z,3.17
2023-02-27T06:52:43.420Z,3.13
2023-02-27T06:55:29.202Z,3.40
2023-02-27T06:58:16.092Z,3.30
2023-02-27T07:01:02.168Z,3.28
2023-02-27T07:03:48.045Z,3.15
2023-02-27T07:07:34.500Z,2.50
2023-02-27T07:09:39.807Z,2.90
2023-02-27T07:12:25.679Z,2.63
2023-02-27T07:15:11.893Z,2.70
2023-02-27T07:17:58.987Z,3.10
2023-02-27T07:20:44.861Z,3.60
2023-02-27T07:23:30.560Z,3.65
2023-02-27T07:26:16.445Z,4.40
2023-02-27T07:29:02.122Z,3.70
2023-02-27T07:31:49.136Z,2.67
2023-02-27T07:34:34.988Z,2.88
2023-02-27T07:37:20.681Z,3.38
2023-02-27T07:40:10.176Z,3.92
2023-02-27T07:42:56.225Z,3.90
2023-02-27T07:45:42.625Z,3.63
2023-02-27T07:48:29.675Z,3.55
2023-02-27T07:51:15.470Z,4.72
2023-02-27T07:54:01.322Z,5.80
2023-02-27T07:56:47.406Z,4.43
2023-02-27T07:59:33.252Z,5.20
2023-02-27T08:02:19.211Z,4.68
2023-02-27T08:05:06.299Z,4.35
2023-02-27T08:07:52.361Z,4.03
2023-02-27T08:10:38.095Z,4.53
2023-02-27T08:13:35.932Z,4.68
2023-02-27T08:16:31.205Z,5.60
2023-02-27T08:19:17.344Z,4.35
2023-02-27T08:22:03.758Z,4.82
2023-02-27T08:24:53.942Z,4.57
2023-02-27T08:27:39.759Z,5.40
2023-02-27T08:30:25.622Z,5.75
2023-02-27T08:33:14.126Z,4.45
2023-02-27T08:35:59.999Z,4.65
2023-02-27T08:38:46.365Z,5.53
2023-02-27T08:41:32.726Z,5.00
2023-02-27T08:44:19.225Z,5.10
2023-02-27T08:47:04.943Z,5.15
2023-02-27T08:49:50.813Z,5.40
2023-02-27T08:52:36.720Z,4.95
2023-02-27T08:55:22.589Z,5.20
2023-02-27T08:58:09.500Z,4.65
2023-02-27T09:00:56.503Z,4.35
2023-02-27T09:03:42.090Z,4.53
2023-02-27T09:06:30.062Z,4.65
2023-02-27T09:09:16.115Z,4.82
2023-02-27T09:12:01.857Z,4.90
2023-02-27T09:14:47.589Z,4.90
2023-02-27T09:17:34.338Z,5.00
2023-02-27T09:20:20.341Z,5.35
2023-02-27T09:23:06.052Z,5.40
2023-02-27T09:25:51.800Z,5.85
2023-02-27T09:28:40.120Z,5.32
2023-02-27T09:31:32.823Z,5.35
2023-02-27T09:34:19.478Z,6.10
2023-02-27T09:37:05.322Z,5.63
2023-02-27T09:39:51.477Z,6.18
2023-02-27T09:42:45.678Z,6.55
2023-02-27T09:45:36.618Z,6.10
2023-02-27T09:48:41.482Z,6.30
2023-02-27T09:51:29.367Z,6.22
2023-02-27T09:54:15.552Z,6.13
2023-02-27T09:57:04.049Z,5.00
2023-02-27T09:59:57.185Z,4.80
2023-02-27T10:02:46.143Z,6.05
2023-02-27T10:05:40.473Z,5.95
2023-02-27T10:08:51.640Z,7.68
2023-02-27T10:12:08.713Z,5.18
2023-02-27T10:15:15.572Z,4.63
2023-02-27T10:18:29.677Z,4.97
2023-02-27T10:21:21.405Z,5.03
2023-02-27T10:24:27.521Z,5.15
2023-02-27T10:27:17.981Z,5.43
2023-02-27T10:30:28.548Z,4.85
2023-02-27T10:33:55.618Z,4.68
2023-02-27T10:36:41.549Z,5.80
2023-02-27T10:39:30.591Z,5.78
2023-02-27T10:42:17.474Z,5.38
2023-02-27T10:45:06.497Z,4.63
2023-02-27T10:47:52.332Z,5.22
2023-02-27T10:50:41.390Z,5.63
2023-02-27T10:53:31.337Z,6.82
2023-02-27T10:56:24.682Z,8.35
2023-02-27T10:59:39.456Z,5.85
2023-02-27T11:02:29.610Z,6.90
2023-02-27T11:05:33.677Z,9.95
2023-02-27T11:11:11.951Z,6.38
2023-02-27T11:14:20.445Z,5.55
2023-02-27T11:17:06.659Z,5.43
2023-02-27T11:19:53.472Z,4.22
2023-02-27T11:22:41.775Z,5.38
2023-02-27T11:25:27.409Z,3.72
2023-02-27T11:28:25.747Z,5.80
2023-02-27T11:31:17.545Z,4.60
2023-02-27T11:34:04.971Z,5.35
2023-02-27T11:36:54.894Z,4.60
2023-02-27T11:39:49.244Z,4.38
2023-02-27T11:42:37.216Z,5.50
2023-02-27T11:46:11.854Z,4.40
2023-02-27T11:48:54.064Z,5.88
2023-02-27T11:51:59.276Z,3.90
2023-02-27T11:54:56.506Z,4.88
2023-02-27T11:57:43.952Z,8.73
2023-02-27T12:00:33.737Z,5.47
2023-02-27T12:03:36.681Z,5.30
2023-02-27T12:06:28.898Z,4.10
2023-02-27T12:09:27.836Z,5.57
2023-02-27T12:12:22.023Z,4.63
2023-02-27T12:15:16.579Z,5.60
2023-02-27T12:18:23.492Z,5.47
2023-02-27T12:21:20.028Z,6.03
2023-02-27T12:24:46.564Z,4.53
2023-02-27T12:27:43.712Z,5.00
2023-02-27T12:30:34.477Z,4.25
2023-02-27T12:33:29.005Z,4.50
2023-02-27T12:36:15.003Z,4.05
2023-02-27T12:39:01.162Z,3.63
2023-02-27T12:42:11.502Z,4.35
2023-02-27T12:45:15.829Z,3.97
2023-02-27T12:48:23.192Z,4.22
2023-02-27T12:51:17.474Z,3.75
2023-02-27T12:54:22.103Z,4.28
2023-02-27T12:57:29.741Z,5.60
2023-02-27T13:00:19.664Z,5.07
2023-02-27T13:03:15.489Z,5.15
2023-02-27T13:06:26.257Z,4.78
2023-02-27T13:09:34.208Z,5.75
2023-02-27T13:12:33.873Z,5.25
2023-02-27T13:15:44.865Z,5.68
2023-02-27T13:18:39.723Z,5.03
2023-02-27T13:21:40.110Z,5.25
2023-02-27T13:24:27.356Z,5.45
2023-02-27T13:27:25.076Z,5.60
2023-02-27T13:30:16.129Z,4.43
2023-02-27T13:33:13.238Z,4.97
2023-02-27T13:36:22.496Z,4.53
2023-02-27T13:39:52.972Z,5.32
2023-02-27T13:42:38.632Z,5.00
2023-02-27T13:45:49.504Z,5.32
2023-02-27T13:48:40.789Z,6.20
2023-02-27T13:51:41.245Z,4.80
2023-02-27T13:54:39.742Z,6.90
2023-02-27T13:57:31.913Z,6.70
2023-02-27T14:00:24.955Z,6.35
2023-02-27T14:03:21.465Z,7.07
2023-02-27T14:06:07.302Z,7.60
2023-02-27T14:09:08.881Z,8.48
2023-02-27T14:12:02.655Z,5.90
2023-02-27T14:14:50.383Z,6.70
2023-02-27T14:17:36.271Z,6.65
2023-02-27T14:20:30.125Z,6.82
2023-02-27T14:23:15.894Z,5.95
2023-02-27T14:26:15.655Z,6.78
2023-02-27T14:29:01.871Z,6.55
2023-02-27T14:31:48.421Z,7.05
2023-02-27T14:34:36.166Z,6.63
2023-02-27T14:37:25.151Z,6.55
2023-02-27T14:40:29.761Z,8.43
2023-02-27T14:43:26.710Z,9.23
2023-02-27T14:46:27.105Z,7.80
2023-02-27T14:49:22.569Z,6.93
2023-02-27T14:52:22.240Z,6.80
2023-02-27T14:55:28.132Z,7.60
2023-02-27T14:58:14.098Z,6.95
2023-02-27T15:01:03.916Z,7.70
2023-02-27T15:04:00.014Z,7.40
2023-02-27T15:06:53.611Z,7.25
2023-02-27T15:09:44.711Z,7.13
2023-02-27T15:12:31.131Z,8.02
2023-02-27T15:15:20.841Z,7.80
2023-02-27T15:18:13.099Z,7.30
2023-02-27T15:20:59.463Z,8.32
2023-02-27T15:23:54.160Z,8.32
2023-02-27T15:26:40.707Z,8.27
2023-02-27T15:29:34.409Z,8.27
2023-02-27T15:32:40.093Z,7.63
2023-02-27T15:35:29.685Z,10.05
2023-02-27T15:38:26.408Z,8.00
2023-02-27T15:41:14.047Z,9.68
2023-02-27T15:44:01.427Z,8.32
2023-02-27T15:46:47.762Z,9.43
2023-02-27T15:49:39.509Z,9.35
2023-02-27T15:52:26.920Z,8.15
2023-02-27T15:55:14.983Z,8.35
2023-02-27T15:58:03.534Z,7.78
2023-02-27T16:00:52.993Z,7.55
2023-02-27T16:03:43.992Z,8.27
2023-02-27T16:06:35.440Z,8.50
2023-02-27T16:09:30.376Z,7.85
2023-02-27T16:12:32.029Z,9.63
2023-02-27T16:15:38.977Z,8.75
2023-02-27T16:18:37.730Z,11.80
2023-02-27T16:21:25.363Z,12.80
2023-02-27T16:24:32.073Z,12.15
2023-02-27T16:27:28.996Z,10.73
2023-02-27T16:30:16.214Z,11.35
2023-02-27T16:33:04.672Z,10.88
2023-02-27T16:35:50.964Z,11.20
2023-02-27T16:38:38.528Z,11.10
2023-02-27T16:41:24.956Z,37.95
2023-02-27T16:44:12.829Z,29.83
2023-02-27T16:47:02.178Z,17.15
2023-02-27T16:49:49.873Z,18.92
2023-02-27T16:52:35.543Z,19.20
2023-02-27T16:55:21.416Z,18.20
2023-02-27T16:58:09.765Z,19.30
2023-02-27T17:00:57.077Z,18.92
2023-02-27T17:03:44.307Z,19.48
2023-02-27T17:06:30.666Z,18.52
2023-02-27T17:09:16.945Z,19.63
2023-02-27T17:12:02.632Z,21.00
2023-02-27T17:14:48.571Z,19.67
2023-02-27T17:17:34.420Z,19.60
2023-02-27T17:20:20.139Z,19.60
2023-02-27T17:23:05.919Z,23.10
2023-02-27T17:25:55.250Z,25.05
2023-02-27T17:28:40.986Z,25.30
2023-02-27T17:31:27.009Z,21.05
2023-02-27T17:34:13.049Z,21.42
2023-02-27T17:37:00.794Z,19.98
2023-02-27T17:39:46.684Z,18.60
2023-02-27T17:42:32.825Z,16.13
2023-02-27T17:45:21.213Z,18.30
2023-02-27T17:48:07.850Z,19.20
2023-02-27T17:50:53.697Z,15.43
2023-02-27T17:53:40.198Z,14.00
2023-02-27T17:56:26.558Z,14.02
2023-02-27T17:59:12.608Z,17.90
2023-02-27T18:01:59.160Z,15.57
2023-02-27T18:04:45.279Z,14.90
2023-02-27T18:07:31.543Z,16.02
2023-02-27T18:10:17.582Z,14.45
2023-02-27T18:13:05.406Z,16.23
2023-02-27T18:15:52.128Z,15.98
2023-02-27T18:18:39.624Z,15.23
2023-02-27T18:21:25.797Z,18.73
2023-02-27T18:24:11.644Z,21.92
2023-02-27T18:26:57.890Z,23.20
2023-02-27T18:29:43.906Z,26.27
2023-02-27T18:32:30.034Z,26.95
2023-02-27T18:35:16.814Z,29.67
2023-02-27T18:38:03.743Z,28.85
2023-02-27T18:40:49.598Z,28.48
2023-02-27T18:43:36.808Z,26.88
2023-02-27T18:46:23.274Z,24.83
2023-02-27T18:49:09.053Z,26.65
2023-02-27T18:51:56.002Z,25.58
2023-02-27T18:54:42.607Z,24.08
2023-02-27T18:57:28.530Z,27.08
2023-02-27T19:00:14.667Z,25.75
2023-02-27T19:03:00.464Z,46.80
2023-02-27T19:05:46.554Z,26.30
2023-02-27T19:08:32.743Z,27.80
2023-02-27T19:11:28.649Z,28.63
2023-02-27T19:14:16.336Z,27.42
2023-02-27T19:17:02.137Z,28.75
2023-02-27T19:19:48.297Z,28.58
2023-02-27T19:22:34.478Z,29.52
2023-02-27T19:25:22.737Z,28.20
2023-02-27T19:28:11.334Z,26.58
2023-02-27T19:30:58.416Z,27.40
2023-02-27T19:33:44.536Z,28.88
2023-02-27T19:36:31.341Z,28.92
2023-02-27T19:39:17.571Z,29.17
2023-02-27T19:42:03.575Z,29.33
2023-02-27T19:44:49.706Z,30.10
2023-02-27T19:47:36.464Z,30.38
2023-02-27T19:50:22.294Z,28.98
2023-02-27T19:53:08.364Z,29.48
2023-02-27T19:56:02.910Z,27.88
2023-02-27T19:58:48.751Z,29.65
2023-02-27T20:01:36.482Z,28.55
2023-02-27T20:04:22.388Z,28.23
2023-02-27T20:07:08.623Z,28.13
2023-02-27T20:09:57.304Z,29.45
2023-02-27T20:12:44.297Z,30.88
2023-02-27T20:15:30.584Z,32.38
2023-02-27T20:18:16.143Z,30.92
2023-02-27T20:21:05.789Z,28.75
2023-02-27T20:23:52.518Z,26.67
2023-02-27T20:26:43.396Z,30.05
2023-02-27T20:29:29.374Z,29.77
2023-02-27T20:32:15.168Z,27.60
2023-02-27T20:35:01.256Z,28.92
2023-02-27T20:37:46.989Z,27.27
2023-02-27T20:40:33.732Z,28.55
2023-02-27T20:43:20.660Z,29.90
2023-02-27T20:46:09.041Z,30.15
2023-02-27T20:49:00.875Z,29.48
2023-02-27T20:51:46.549Z,31.00
2023-02-27T20:54:32.430Z,29.73
2023-02-27T20:57:18.092Z,31.13
2023-02-27T21:00:05.506Z,30.85
2023-02-27T21:02:51.802Z,29.40
2023-02-27T21:05:49.029Z,30.25
2023-02-27T21:08:39.884Z,29.30
2023-02-27T21:11:29.927Z,31.10
2023-02-27T21:14:16.168Z,30.48
2023-02-27T21:17:02.127Z,30.13
2023-02-27T21:19:48.104Z,34.92
2023-02-27T21:22:43.069Z,26.83
2023-02-27T21:25:28.961Z,27.83
2023-02-27T21:28:14.661Z,26.85
2023-02-27T21:31:05.937Z,28.05
2023-02-27T21:33:53.130Z,27.65
2023-02-27T21:36:43.659Z,27.83
2023-02-27T21:39:29.639Z,30.73
2023-02-27T21:42:17.547Z,31.77
2023-02-27T21:45:03.660Z,28.60
2023-02-27T21:47:49.492Z,26.35
2023-02-27T21:50:36.673Z,25.17
2023-02-27T21:53:22.699Z,27.20
2023-02-27T21:56:11.166Z,24.95
2023-02-27T21:59:01.377Z,24.77
2023-02-27T22:01:48.577Z,23.15
2023-02-27T22:04:34.499Z,22.00
2023-02-27T22:07:20.313Z,22.75
2023-02-27T22:10:07.283Z,21.70
2023-02-27T22:12:53.474Z,25.45
2023-02-27T22:15:40.312Z,24.35
2023-02-27T22:18:27.115Z,24.42
2023-02-27T22:21:25.373Z,24.50
2023-02-27T22:24:11.867Z,24.52
2023-02-27T22:26:58.023Z,24.35
2023-02-27T22:29:44.338Z,25.20
2023-02-27T22:32:30.325Z,24.35
2023-02-27T22:35:16.748Z,23.17
2023-02-27T22:38:02.930Z,25.15
2023-02-27T22:40:48.703Z,24.60
2023-02-27T22:43:34.999Z,25.35
2023-02-27T22:46:29.307Z,26.45
2023-02-27T22:49:18.440Z,26.65
2023-02-27T22:52:04.786Z,26.05
2023-02-27T22:54:52.978Z,25.08
2023-02-27T22:57:39.172Z,25.27
2023-02-27T23:00:25.440Z,24.85
2023-02-27T23:03:11.464Z,25.20
2023-02-27T23:05:57.257Z,24.23
2023-02-27T23:08:43.552Z,24.25
2023-02-27T23:11:33.969Z,22.52
2023-02-27T23:17:09.149Z,22.55
2023-02-27T23:19:54.901Z,25.27
2023-02-27T23:22:40.865Z,24.95
2023-02-27T23:25:26.995Z,26.05
2023-02-27T23:28:12.683Z,23.42
2023-02-27T23:30:59.897Z,25.95
2023-02-27T23:33:45.776Z,24.98
2023-02-27T23:36:32.652Z,24.75
2023-02-27T23:39:19.562Z,24.63
2023-02-27T23:42:06.292Z,26.65
2023-02-27T23:45:08.127Z,25.63
2023-02-27T23:47:56.201Z,25.98
2023-02-27T23:50:44.522Z,26.15
2023-02-27T23:53:30.441Z,26.33
2023-02-27T23:56:26.837Z,28.60
2023-02-27T23:59:12.842Z,27.48
